Time;durP1;ratioP1;P1;durP2;ratioP2;P2;SDS_P1;SDS_P2;PMS_P1;PMS_P2;Temp;Humidity;BMP_temperature;BMP_pressure;BME280_temperature;BME280_humidity;BME280_pressure;Samples;Min_cycle;Max_cycle;Signal;HPM_P1;HPM_P2
2021/12/22 00:01:43;;;;;;;7.53;5.17;;;1.10;99.90;;;;;;5031238;28;20579;-71
2021/12/22 00:04:10;;;;;;;10.13;5.50;;;1.00;99.90;;;;;;5031071;28;20616;-70
2021/12/22 00:06:36;;;;;;;8.00;5.00;;;1.10;99.90;;;;;;5030918;28;20672;-71
2021/12/22 00:09:05;;;;;;;5.50;4.93;;;1.10;99.90;;;;;;5031189;28;20220;-70
2021/12/22 00:11:32;;;;;;;6.23;4.40;;;1.10;99.90;;;;;;5031071;28;20235;-71
2021/12/22 00:13:59;;;;;;;8.20;5.17;;;1.10;99.90;;;;;;5030976;28;20712;-70
2021/12/22 00:16:26;;;;;;;5.00;3.93;;;1.10;99.90;;;;;;5031005;28;20213;-70
2021/12/22 00:18:53;;;;;;;7.90;5.03;;;1.00;99.90;;;;;;5030484;28;20703;-70
2021/12/22 00:21:20;;;;;;;5.00;4.50;;;0.90;99.90;;;;;;5030898;28;20200;-70
2021/12/22 00:23:47;;;;;;;8.27;4.83;;;1.00;99.90;;;;;;5030553;28;20625;-69
2021/12/22 00:26:15;;;;;;;5.73;4.20;;;1.00;99.90;;;;;;5030646;28;20271;-71
2021/12/22 00:28:42;;;;;;;7.10;4.50;;;1.00;99.90;;;;;;5030654;28;20703;-71
2021/12/22 00:31:12;;;;;;;8.30;4.80;;;1.00;99.90;;;;;;5030783;28;20575;-71
2021/12/22 00:33:46;;;;;;;6.13;4.50;;;0.90;99.90;;;;;;5030436;28;20233;-71
2021/12/22 00:36:13;;;;;;;6.17;4.60;;;0.90;99.90;;;;;;5030916;28;20246;-71
2021/12/22 00:38:40;;;;;;;7.40;4.67;;;1.00;99.90;;;;;;5030622;28;20236;-71
2021/12/22 00:41:07;;;;;;;7.07;4.70;;;1.00;99.90;;;;;;5030671;28;20227;-71
2021/12/22 00:43:35;;;;;;;8.87;5.47;;;1.10;99.90;;;;;;5030403;28;20729;-71
2021/12/22 00:46:04;;;;;;;7.63;5.80;;;1.10;99.90;;;;;;5030328;28;20682;-71
2021/12/22 00:48:31;;;;;;;8.43;5.90;;;1.10;99.90;;;;;;5030004;28;20654;-72
2021/12/22 00:50:58;;;;;;;8.23;5.97;;;0.90;99.90;;;;;;5029944;28;20676;-71
2021/12/22 00:53:25;;;;;;;7.40;5.00;;;0.80;99.90;;;;;;5030152;28;20618;-71
2021/12/22 00:55:52;;;;;;;9.00;5.57;;;0.90;99.90;;;;;;5029788;28;20240;-70
2021/12/22 00:58:20;;;;;;;7.77;5.53;;;0.90;99.90;;;;;;5030216;28;20244;-70
2021/12/22 01:00:49;;;;;;;8.47;5.50;;;0.90;99.90;;;;;;5029942;28;20200;-70
2021/12/22 01:03:16;;;;;;;6.40;5.50;;;0.80;99.90;;;;;;5030083;28;20212;-70
2021/12/22 01:05:43;;;;;;;8.83;5.30;;;0.80;99.90;;;;;;5029511;28;20995;-70
2021/12/22 01:08:10;;;;;;;11.13;6.20;;;0.90;99.90;;;;;;5029986;28;20267;-70
2021/12/22 01:10:37;;;;;;;6.50;5.63;;;1.00;99.90;;;;;;5029782;28;20239;-70
2021/12/22 01:13:05;;;;;;;8.77;5.77;;;1.10;99.90;;;;;;5029548;28;20765;-70
2021/12/22 01:15:34;;;;;;;6.90;6.13;;;1.10;99.90;;;;;;5029928;28;20204;-70
2021/12/22 01:18:08;;;;;;;8.43;5.97;;;1.20;99.90;;;;;;5029754;28;20229;-70
2021/12/22 01:20:40;;;;;;;9.30;6.10;;;1.20;99.90;;;;;;5029410;28;20631;-70
2021/12/22 01:23:07;;;;;;;7.60;5.60;;;1.20;99.90;;;;;;5029705;28;20200;-70
2021/12/22 01:25:38;;;;;;;6.13;5.40;;;1.20;99.90;;;;;;5029228;28;20809;-70
2021/12/22 01:28:05;;;;;;;8.20;6.40;;;1.20;99.90;;;;;;5029651;28;20197;-70
2021/12/22 01:30:33;;;;;;;8.70;6.47;;;1.20;99.90;;;;;;5029665;28;20255;-70
2021/12/22 01:33:04;;;;;;;6.80;5.90;;;1.20;99.90;;;;;;5029208;28;20229;-70
2021/12/22 01:35:33;;;;;;;7.47;6.47;;;1.20;99.90;;;;;;5029977;28;20247;-70
2021/12/22 01:38:00;;;;;;;9.17;6.27;;;1.20;99.90;;;;;;5029256;28;20229;-72
2021/12/22 01:40:27;;;;;;;8.37;6.70;;;1.00;99.90;;;;;;5029316;28;20735;-72
2021/12/22 01:42:56;;;;;;;7.10;6.40;;;1.00;99.90;;;;;;5029269;28;20254;-72
2021/12/22 01:45:48;;;;;;;9.07;6.43;;;1.00;99.90;;;;;;5029625;28;20596;-72
2021/12/22 01:51:06;;;;;;;8.23;5.67;;;0.90;99.90;;;;;;5028987;28;20204;-72
2021/12/22 01:53:39;;;;;;;7.43;6.07;;;0.90;99.90;;;;;;5029291;28;20282;-72
2021/12/22 01:56:16;;;;;;;7.57;5.53;;;0.90;99.90;;;;;;5028883;28;20302;-70
2021/12/22 01:58:46;;;;;;;7.23;5.37;;;0.80;99.90;;;;;;5029082;28;20260;-70
2021/12/22 02:01:15;;;;;;;7.27;5.80;;;0.80;99.90;;;;;;5029098;28;20209;-70
2021/12/22 02:03:45;;;;;;;5.43;4.47;;;0.80;99.90;;;;;;5028947;28;20209;-70
2021/12/22 02:06:12;;;;;;;10.03;5.33;;;0.70;99.90;;;;;;5029204;28;20255;-70
2021/12/22 02:08:39;;;;;;;7.67;5.00;;;0.70;99.90;;;;;;5028808;28;20216;-70
2021/12/22 02:11:07;;;;;;;7.50;5.13;;;0.60;99.90;;;;;;5028623;28;20242;-72
2021/12/22 02:13:38;;;;;;;6.20;5.03;;;0.60;99.90;;;;;;5027905;28;20235;-72
2021/12/22 02:16:12;;;;;;;6.10;4.70;;;0.70;99.90;;;;;;5008429;28;20197;-72
2021/12/22 02:18:40;;;;;;;5.03;4.53;;;0.70;99.90;;;;;;5009051;28;20304;-72
2021/12/22 02:21:09;;;;;;;6.73;4.83;;;0.80;99.90;;;;;;5008866;28;20296;-72
2021/12/22 02:23:37;;;;;;;5.47;4.97;;;0.80;99.90;;;;;;5008789;28;20575;-72
2021/12/22 02:26:12;;;;;;;7.03;5.57;;;0.80;99.90;;;;;;5008936;28;20201;-71
2021/12/22 02:28:43;;;;;;;6.30;5.30;;;0.60;99.90;;;;;;5008744;28;20568;-71
2021/12/22 02:31:13;;;;;;;6.20;5.43;;;0.60;99.90;;;;;;5008857;28;20206;-72
2021/12/22 02:33:43;;;;;;;7.37;5.30;;;0.60;99.90;;;;;;5008864;28;20194;-72
2021/12/22 02:36:22;;;;;;;7.57;5.03;;;0.60;99.90;;;;;;5008589;28;20668;-71
2021/12/22 02:38:51;;;;;;;5.50;4.67;;;0.60;99.90;;;;;;5008264;28;20715;-71
2021/12/22 02:41:21;;;;;;;5.03;4.50;;;0.70;99.90;;;;;;5009084;28;20210;-72
2021/12/22 02:43:50;;;;;;;6.30;4.13;;;0.60;99.90;;;;;;5008675;28;20216;-71
2021/12/22 02:46:18;;;;;;;5.20;4.00;;;0.60;99.90;;;;;;5008707;28;20205;-72
2021/12/22 02:48:46;;;;;;;4.23;3.50;;;0.50;99.90;;;;;;5008586;28;20236;-71
2021/12/22 02:51:14;;;;;;;6.67;3.33;;;0.50;99.90;;;;;;5008775;28;20209;-72
2021/12/22 02:53:45;;;;;;;4.73;3.60;;;0.40;99.90;;;;;;5008572;28;20259;-71
2021/12/22 02:56:26;;;;;;;5.03;3.40;;;0.50;99.90;;;;;;5008222;28;20241;-72
2021/12/22 02:59:01;;;;;;;3.40;3.10;;;0.50;99.90;;;;;;5008424;28;20221;-72
2021/12/22 03:01:53;;;;;;;3.63;3.10;;;0.50;99.90;;;;;;5008675;28;20204;-73
2021/12/22 03:04:25;;;;;;;4.23;3.53;;;0.50;99.90;;;;;;5008536;28;20221;-72
2021/12/22 03:06:57;;;;;;;4.03;3.07;;;0.60;99.90;;;;;;5008692;28;20256;-73
2021/12/22 03:09:27;;;;;;;5.17;3.70;;;0.60;99.90;;;;;;5008327;28;20201;-69
2021/12/22 03:11:57;;;;;;;3.97;2.77;;;0.70;99.90;;;;;;5008315;28;20647;-70
2021/12/22 03:14:25;;;;;;;3.33;3.00;;;0.70;99.90;;;;;;5008329;28;20225;-70
2021/12/22 03:16:53;;;;;;;5.00;2.67;;;0.60;99.90;;;;;;5008247;28;20210;-69
2021/12/22 03:19:22;;;;;;;3.23;2.83;;;0.60;99.90;;;;;;5008246;28;20245;-69
2021/12/22 03:21:52;;;;;;;4.17;2.57;;;0.70;99.90;;;;;;5008259;28;20271;-69
2021/12/22 03:24:22;;;;;;;3.10;2.80;;;0.70;99.90;;;;;;5008254;28;20241;-69
2021/12/22 03:26:48;;;;;;;3.10;2.90;;;0.60;99.90;;;;;;5007947;28;20756;-69
2021/12/22 03:29:17;;;;;;;4.73;3.10;;;0.60;99.90;;;;;;5009966;28;20209;-69
2021/12/22 03:31:46;;;;;;;2.93;2.50;;;0.60;99.90;;;;;;5011689;28;20225;-69
2021/12/22 03:34:14;;;;;;;3.03;2.80;;;0.60;99.90;;;;;;5011914;28;20607;-71
2021/12/22 03:36:42;;;;;;;5.87;2.67;;;0.60;99.90;;;;;;5012215;28;20208;-71
2021/12/22 03:39:10;;;;;;;3.37;2.90;;;0.60;99.90;;;;;;5011532;28;20225;-71
2021/12/22 03:41:39;;;;;;;4.83;2.80;;;0.60;99.90;;;;;;5011181;28;20676;-71
2021/12/22 03:44:07;;;;;;;4.80;3.33;;;0.60;99.90;;;;;;5011649;28;20217;-71
2021/12/22 03:46:34;;;;;;;4.87;3.47;;;0.50;99.90;;;;;;5011355;28;20209;-70
2021/12/22 03:49:01;;;;;;;4.30;3.33;;;0.50;99.90;;;;;;5011246;28;21028;-70
2021/12/22 03:51:28;;;;;;;2.93;2.73;;;0.60;99.90;;;;;;5011388;28;20727;-70
2021/12/22 03:53:55;;;;;;;4.60;3.83;;;0.60;99.90;;;;;;5011457;28;20240;-71
2021/12/22 03:56:22;;;;;;;3.83;2.97;;;0.70;99.90;;;;;;5010760;28;20299;-70
2021/12/22 03:58:50;;;;;;;4.47;3.10;;;0.60;99.90;;;;;;5011137;28;20310;-70
2021/12/22 04:01:17;;;;;;;4.40;2.80;;;0.70;99.90;;;;;;5011448;28;20217;-70
2021/12/22 04:03:48;;;;;;;3.07;2.80;;;0.70;99.90;;;;;;5011271;28;20225;-73
2021/12/22 04:06:14;;;;;;;3.10;2.80;;;0.80;99.90;;;;;;5011639;28;20194;-71
2021/12/22 04:08:41;;;;;;;4.37;2.33;;;0.80;99.90;;;;;;5011458;28;20236;-71
2021/12/22 04:11:08;;;;;;;2.97;2.63;;;0.70;99.90;;;;;;5011176;28;20330;-71
2021/12/22 04:13:34;;;;;;;3.97;2.63;;;0.60;99.90;;;;;;5011298;28;20307;-71
2021/12/22 04:16:05;;;;;;;4.57;2.80;;;0.60;99.90;;;;;;5011524;28;20210;-71
2021/12/22 04:18:32;;;;;;;3.63;2.50;;;0.60;99.90;;;;;;5011226;28;20205;-72
2021/12/22 04:20:59;;;;;;;3.73;3.40;;;0.60;99.90;;;;;;5011096;28;20209;-71
2021/12/22 04:23:25;;;;;;;3.37;3.07;;;0.60;99.90;;;;;;5011191;28;20220;-71
2021/12/22 04:25:52;;;;;;;3.40;3.00;;;0.60;99.90;;;;;;5011028;28;20209;-73
2021/12/22 04:28:19;;;;;;;5.40;3.20;;;0.50;99.90;;;;;;5011020;28;20217;-72
2021/12/22 04:30:49;;;;;;;3.40;3.07;;;0.50;99.90;;;;;;5010969;28;20255;-72
2021/12/22 04:33:19;;;;;;;4.87;3.50;;;0.40;99.90;;;;;;5011224;28;20574;-72
2021/12/22 04:35:46;;;;;;;4.97;3.43;;;0.40;99.90;;;;;;5010931;28;20231;-71
2021/12/22 04:38:12;;;;;;;3.80;3.40;;;0.50;99.90;;;;;;5011069;28;20209;-71
2021/12/22 04:40:39;;;;;;;4.33;3.70;;;0.40;99.90;;;;;;5010300;28;20233;-73
2021/12/22 04:43:06;;;;;;;3.63;3.33;;;0.50;99.90;;;;;;5011221;28;20213;-72
2021/12/22 04:45:33;;;;;;;3.43;3.20;;;0.40;99.90;;;;;;5010798;28;20204;-72
2021/12/22 04:48:00;;;;;;;3.97;3.10;;;0.40;99.90;;;;;;5010633;28;20237;-72
2021/12/22 04:50:28;;;;;;;4.50;3.30;;;0.40;99.90;;;;;;5010648;28;20263;-71
2021/12/22 04:52:59;;;;;;;3.80;3.50;;;0.40;99.90;;;;;;5010559;28;20624;-71
2021/12/22 04:55:27;;;;;;;4.40;3.30;;;0.40;99.90;;;;;;5010069;28;20244;-71
2021/12/22 04:57:54;;;;;;;4.33;3.93;;;0.40;99.90;;;;;;5010467;28;20286;-71
2021/12/22 05:00:23;;;;;;;5.47;4.27;;;0.40;99.90;;;;;;5010189;28;20244;-71
2021/12/22 05:02:50;;;;;;;7.87;4.33;;;0.40;99.90;;;;;;5010193;28;20259;-69
2021/12/22 05:05:17;;;;;;;5.97;4.20;;;0.40;99.90;;;;;;5010188;28;20715;-70
2021/12/22 05:07:47;;;;;;;4.60;4.17;;;0.40;99.90;;;;;;5010020;28;20258;-70
2021/12/22 05:10:14;;;;;;;4.17;3.77;;;0.40;99.90;;;;;;5009815;28;20236;-70
2021/12/22 05:12:41;;;;;;;4.90;4.43;;;0.50;99.90;;;;;;5009964;28;20635;-70
2021/12/22 05:15:08;;;;;;;6.43;4.90;;;0.50;99.90;;;;;;5010106;28;20212;-70
2021/12/22 05:18:01;;;;;;;5.27;4.30;;;0.50;99.90;;;;;;5010052;28;20279;-70
2021/12/22 05:20:27;;;;;;;6.50;4.80;;;0.40;99.90;;;;;;5009485;28;20252;-70
2021/12/22 05:22:55;;;;;;;7.73;4.77;;;0.50;99.90;;;;;;5009832;28;20800;-71
2021/12/22 05:25:22;;;;;;;5.97;4.90;;;0.60;99.90;;;;;;5009959;28;20209;-71
2021/12/22 05:27:48;;;;;;;6.27;5.67;;;0.50;99.90;;;;;;5009717;28;20209;-71
2021/12/22 05:30:15;;;;;;;9.07;5.60;;;0.50;99.90;;;;;;5009933;28;20209;-71
2021/12/22 05:32:42;;;;;;;8.47;5.03;;;0.50;99.90;;;;;;5009840;28;20647;-70
2021/12/22 05:35:11;;;;;;;6.27;4.73;;;0.50;99.90;;;;;;5009640;28;20826;-69
2021/12/22 05:37:38;;;;;;;5.30;4.80;;;0.50;99.90;;;;;;5009231;28;20213;-69
2021/12/22 05:40:08;;;;;;;6.63;4.97;;;0.40;99.90;;;;;;5009295;28;20229;-70
2021/12/22 05:42:35;;;;;;;5.27;4.70;;;0.30;99.90;;;;;;5009489;28;20537;-70
2021/12/22 05:45:02;;;;;;;6.37;5.37;;;0.20;99.90;;;;;;5010381;28;20608;-69
2021/12/22 05:47:29;;;;;;;6.03;4.97;;;0.20;99.90;;;;;;5009037;28;20235;-71
2021/12/22 05:49:55;;;;;;;5.90;4.67;;;0.20;99.90;;;;;;5009488;28;20216;-71
2021/12/22 05:52:23;;;;;;;6.70;5.37;;;0.20;99.90;;;;;;5008782;28;20252;-71
2021/12/22 05:54:49;;;;;;;5.43;5.00;;;0.20;99.90;;;;;;5009173;28;20269;-71
2021/12/22 05:57:17;;;;;;;7.30;5.00;;;0.20;99.90;;;;;;5009096;28;20213;-69
2021/12/22 05:59:44;;;;;;;7.70;5.40;;;0.20;99.90;;;;;;5008973;28;20243;-69
2021/12/22 06:02:11;;;;;;;6.60;5.00;;;0.10;99.90;;;;;;5009346;28;20216;-69
2021/12/22 06:04:37;;;;;;;6.37;5.70;;;0.10;99.90;;;;;;5013711;28;20215;-70
2021/12/22 06:07:04;;;;;;;6.03;5.10;;;0.10;99.90;;;;;;5028706;28;20207;-70
2021/12/22 06:09:31;;;;;;;5.73;5.23;;;0.10;99.90;;;;;;5028958;28;20282;-70
2021/12/22 06:11:57;;;;;;;5.87;5.30;;;0.00;99.90;;;;;;5028312;28;20274;-70
2021/12/22 06:14:25;;;;;;;6.73;5.03;;;0.00;99.90;;;;;;5028426;28;20211;-70
2021/12/22 06:16:52;;;;;;;6.10;5.27;;;-0.10;99.90;;;;;;5028503;28;20213;-70
2021/12/22 06:19:20;;;;;;;8.43;5.30;;;0.00;99.90;;;;;;5028148;28;20678;-70
2021/12/22 06:21:47;;;;;;;5.67;5.17;;;0.00;99.90;;;;;;5028233;28;20290;-70
2021/12/22 06:24:14;;;;;;;6.37;5.40;;;0.00;99.90;;;;;;5028416;28;20216;-70
2021/12/22 06:26:40;;;;;;;6.40;4.73;;;0.00;99.90;;;;;;5028439;28;20208;-70
2021/12/22 06:29:07;;;;;;;6.17;5.23;;;0.00;99.90;;;;;;5028389;28;20265;-70
2021/12/22 06:31:35;;;;;;;6.13;5.13;;;0.10;99.90;;;;;;5028558;28;20231;-70
2021/12/22 06:34:03;;;;;;;7.27;5.70;;;0.00;99.90;;;;;;5028336;28;20212;-70
2021/12/22 06:36:29;;;;;;;7.63;5.53;;;0.00;99.90;;;;;;5028401;28;20291;-70
2021/12/22 06:38:56;;;;;;;6.97;5.37;;;0.10;99.90;;;;;;5028877;28;20209;-70
2021/12/22 06:41:23;;;;;;;6.50;5.40;;;0.00;99.90;;;;;;5028249;28;20241;-70
2021/12/22 06:43:50;;;;;;;7.07;4.77;;;0.10;99.90;;;;;;5028256;28;20205;-70
2021/12/22 06:46:17;;;;;;;6.10;5.50;;;0.10;99.90;;;;;;5028190;28;20208;-70
2021/12/22 06:48:45;;;;;;;6.60;5.23;;;0.10;99.90;;;;;;5028045;28;20346;-70
2021/12/22 06:51:11;;;;;;;7.53;5.23;;;0.20;99.90;;;;;;5028127;28;20209;-70
2021/12/22 06:53:39;;;;;;;6.07;5.07;;;0.20;99.90;;;;;;5028129;28;20208;-70
2021/12/22 06:56:06;;;;;;;5.77;5.20;;;0.30;99.90;;;;;;5027512;28;20240;-70
2021/12/22 06:58:33;;;;;;;6.13;5.40;;;0.20;99.90;;;;;;5028028;28;20581;-70
2021/12/22 07:01:00;;;;;;;5.83;5.07;;;0.10;99.90;;;;;;5027537;28;20765;-70
2021/12/22 07:03:27;;;;;;;6.30;5.13;;;0.10;99.90;;;;;;5030474;28;20212;-70
2021/12/22 07:05:55;;;;;;;7.33;5.57;;;0.00;99.90;;;;;;5032020;28;20296;-70
2021/12/22 07:08:22;;;;;;;6.33;5.53;;;-0.10;99.90;;;;;;5032224;28;20273;-70
2021/12/22 07:10:49;;;;;;;9.77;5.20;;;-0.10;99.90;;;;;;5031793;28;20675;-71
2021/12/22 07:13:16;;;;;;;9.27;5.50;;;-0.10;99.90;;;;;;5031771;28;20732;-71
2021/12/22 07:15:43;;;;;;;7.27;5.63;;;-0.30;99.90;;;;;;5031902;28;20261;-71
2021/12/22 07:18:12;;;;;;;9.60;7.20;;;-0.30;99.90;;;;;;5031760;28;20935;-71
2021/12/22 07:20:39;;;;;;;10.13;7.87;;;-0.30;99.90;;;;;;5032010;28;20365;-71
2021/12/22 07:23:07;;;;;;;7.93;7.07;;;-0.30;99.90;;;;;;5032078;28;20235;-72
2021/12/22 07:25:33;;;;;;;13.73;6.10;;;-0.20;99.90;;;;;;5032060;28;20251;-72
2021/12/22 07:28:00;;;;;;;7.97;6.23;;;-0.20;99.90;;;;;;5031514;28;20614;-72
2021/12/22 07:30:27;;;;;;;11.37;6.10;;;-0.10;99.90;;;;;;5032028;28;20585;-72
2021/12/22 07:32:53;;;;;;;10.10;7.43;;;0.00;99.90;;;;;;5031914;28;20212;-72
2021/12/22 07:35:29;;;;;;;9.13;7.00;;;0.10;99.90;;;;;;5031999;28;20208;-72
2021/12/22 07:38:01;;;;;;;7.50;5.60;;;0.20;99.90;;;;;;5031692;28;20255;-72
2021/12/22 07:40:29;;;;;;;9.33;6.43;;;0.30;99.90;;;;;;5031570;28;20460;-72
2021/12/22 07:42:56;;;;;;;7.00;6.17;;;0.40;99.90;;;;;;5031652;28;20626;-71
2021/12/22 07:45:22;;;;;;;8.50;6.40;;;0.40;99.90;;;;;;5031715;28;20216;-71
2021/12/22 07:47:49;;;;;;;9.43;6.77;;;0.40;99.90;;;;;;5031791;28;20298;-71
2021/12/22 07:50:16;;;;;;;6.80;6.20;;;0.40;99.90;;;;;;5031668;28;20209;-72
2021/12/22 07:52:42;;;;;;;5.77;5.17;;;0.40;99.90;;;;;;5031560;28;20271;-72
2021/12/22 07:55:09;;;;;;;6.03;5.47;;;0.50;99.90;;;;;;5031184;28;20282;-72
2021/12/22 07:57:37;;;;;;;6.73;5.80;;;0.50;99.90;;;;;;5031401;28;20267;-71
2021/12/22 08:00:06;;;;;;;8.07;6.00;;;0.50;99.90;;;;;;5031451;28;20561;-71
2021/12/22 08:02:33;;;;;;;8.07;5.83;;;0.50;99.90;;;;;;5031148;28;20274;-71
2021/12/22 08:04:59;;;;;;;6.20;5.43;;;0.50;99.90;;;;;;5030224;28;20213;-71
2021/12/22 08:07:26;;;;;;;6.90;5.67;;;0.50;99.90;;;;;;5031126;28;20713;-71
2021/12/22 08:09:52;;;;;;;8.60;6.40;;;0.60;99.90;;;;;;5031044;28;20286;-71
2021/12/22 08:12:19;;;;;;;9.27;6.60;;;0.60;99.90;;;;;;5031258;28;20286;-71
2021/12/22 08:14:47;;;;;;;7.30;5.63;;;0.60;99.90;;;;;;5030229;28;20266;-71
2021/12/22 08:17:14;;;;;;;6.53;5.90;;;0.60;99.90;;;;;;5030755;28;20659;-70
2021/12/22 08:19:41;;;;;;;10.37;5.90;;;0.70;99.90;;;;;;5030710;28;20564;-69
2021/12/22 08:22:08;;;;;;;6.40;5.43;;;0.80;99.90;;;;;;5030510;28;20640;-70
2021/12/22 08:24:37;;;;;;;7.03;6.33;;;0.80;99.90;;;;;;5030944;28;20204;-70
2021/12/22 08:27:04;;;;;;;7.20;5.83;;;0.80;99.90;;;;;;5030707;28;20296;-70
2021/12/22 08:29:31;;;;;;;7.23;6.50;;;0.80;99.90;;;;;;5030834;28;20204;-70
2021/12/22 08:31:59;;;;;;;8.00;6.80;;;0.90;99.90;;;;;;5030319;28;20233;-70
2021/12/22 08:34:34;;;;;;;9.43;7.13;;;0.90;99.90;;;;;;5030722;28;20220;-70
2021/12/22 08:39:45;;;;;;;8.43;7.37;;;1.10;99.90;;;;;;5030259;28;20192;-71
2021/12/22 08:42:12;;;;;;;9.73;6.57;;;1.00;99.90;;;;;;5030310;28;21122;-71
2021/12/22 08:44:40;;;;;;;10.93;7.73;;;1.10;99.90;;;;;;5030328;28;20647;-72
2021/12/22 08:47:08;;;;;;;9.30;7.10;;;1.00;99.90;;;;;;5030584;28;20271;-72
2021/12/22 08:49:35;;;;;;;11.33;7.80;;;1.20;99.90;;;;;;5030584;28;20213;-72
2021/12/22 08:52:03;;;;;;;11.10;7.70;;;1.10;99.90;;;;;;5030280;28;20213;-72
2021/12/22 08:54:29;;;;;;;11.80;7.97;;;1.10;99.90;;;;;;5030177;28;20233;-72
2021/12/22 08:56:57;;;;;;;11.47;7.83;;;1.20;99.90;;;;;;5030167;28;20217;-72
2021/12/22 08:59:25;;;;;;;9.97;8.03;;;1.30;99.90;;;;;;5030185;28;20246;-72
2021/12/22 09:01:53;;;;;;;10.93;8.33;;;1.30;99.90;;;;;;5029839;28;20782;-73
2021/12/22 09:04:21;;;;;;;10.87;7.50;;;1.10;99.90;;;;;;5030204;28;20292;-71
2021/12/22 09:06:48;;;;;;;9.57;7.50;;;1.00;99.90;;;;;;5029938;28;20209;-72
2021/12/22 09:09:15;;;;;;;9.60;7.50;;;1.00;99.90;;;;;;5029906;28;20695;-72
2021/12/22 09:11:42;;;;;;;10.33;7.87;;;1.20;99.90;;;;;;5029622;28;20327;-71
2021/12/22 09:14:09;;;;;;;9.30;8.20;;;1.20;99.90;;;;;;5029986;28;20209;-73
2021/12/22 09:16:37;;;;;;;9.03;8.00;;;1.20;99.90;;;;;;5030065;28;20255;-73
2021/12/22 09:19:05;;;;;;;9.57;8.33;;;1.30;99.90;;;;;;5029622;28;20725;-73
2021/12/22 09:21:33;;;;;;;13.13;9.07;;;1.40;99.90;;;;;;5029800;28;20636;-72
2021/12/22 09:24:00;;;;;;;11.37;8.83;;;1.50;99.90;;;;;;5029601;28;20213;-73
2021/12/22 09:26:28;;;;;;;13.57;9.30;;;1.40;99.90;;;;;;5029651;28;20230;-73
2021/12/22 09:28:55;;;;;;;12.13;9.07;;;1.30;99.90;;;;;;5029738;28;20263;-74
2021/12/22 09:31:22;;;;;;;11.50;8.90;;;1.40;99.90;;;;;;5029321;28;20229;-70
2021/12/22 09:33:49;;;;;;;12.07;9.30;;;1.40;99.90;;;;;;5029392;28;20262;-70
2021/12/22 09:36:17;;;;;;;12.30;9.53;;;1.50;99.90;;;;;;5029397;28;20201;-70
2021/12/22 09:38:45;;;;;;;13.10;9.50;;;1.60;99.90;;;;;;5029406;28;20336;-70
2021/12/22 09:41:13;;;;;;;11.37;9.17;;;1.60;99.90;;;;;;5029102;28;20224;-71
2021/12/22 09:43:40;;;;;;;11.80;9.30;;;1.60;99.90;;;;;;5013708;28;20245;-70
2021/12/22 09:46:10;;;;;;;11.27;9.47;;;1.40;99.90;;;;;;5005997;28;20205;-70
2021/12/22 09:48:49;;;;;;;11.87;9.30;;;1.40;99.90;;;;;;5006059;28;20204;-70
2021/12/22 09:54:05;;;;;;;11.50;8.97;;;1.50;99.90;;;;;;5005609;28;20196;-71
2021/12/22 09:56:33;;;;;;;14.77;9.53;;;1.40;99.90;;;;;;5005907;28;20238;-70
2021/12/22 09:59:00;;;;;;;11.10;9.13;;;1.50;99.90;;;;;;5005532;28;20206;-70
2021/12/22 10:01:28;;;;;;;14.47;10.17;;;1.60;99.90;;;;;;5005443;28;20720;-70
2021/12/22 10:03:57;;;;;;;11.07;8.60;;;1.60;99.90;;;;;;5005743;28;20237;-71
2021/12/22 10:06:24;;;;;;;13.13;9.43;;;1.60;99.90;;;;;;5005257;28;20209;-71
2021/12/22 10:08:53;;;;;;;13.57;9.17;;;1.70;99.90;;;;;;5005270;28;20316;-70
2021/12/22 10:11:21;;;;;;;11.30;9.33;;;1.70;99.90;;;;;;5005234;28;20704;-70
2021/12/22 10:13:48;;;;;;;12.83;9.30;;;1.80;99.90;;;;;;5005405;28;20267;-71
2021/12/22 10:16:18;;;;;;;12.27;9.23;;;1.90;99.90;;;;;;5005472;28;20645;-71
2021/12/22 10:18:45;;;;;;;16.73;12.43;;;2.00;99.90;;;;;;5005141;28;20628;-71
2021/12/22 10:21:15;;;;;;;10.43;9.33;;;2.00;99.90;;;;;;5005277;28;20259;-70
2021/12/22 10:23:46;;;;;;;10.80;8.70;;;2.00;99.90;;;;;;5004993;28;20275;-70
2021/12/22 10:26:17;;;;;;;10.60;8.93;;;2.00;99.90;;;;;;5005774;28;20269;-70
2021/12/22 10:28:52;;;;;;;9.90;8.80;;;2.10;99.90;;;;;;5005339;28;20213;-70
2021/12/22 10:31:36;;;;;;;11.77;8.37;;;2.20;99.90;;;;;;5004916;28;20719;-70
2021/12/22 10:34:07;;;;;;;10.07;8.90;;;2.20;99.90;;;;;;5004836;28;20197;-71
2021/12/22 10:36:44;;;;;;;10.70;9.60;;;2.30;99.90;;;;;;5005232;28;20198;-71
2021/12/22 10:39:19;;;;;;;10.37;8.93;;;2.30;99.90;;;;;;5004766;28;20197;-71
2021/12/22 10:41:46;;;;;;;14.40;9.23;;;2.30;99.90;;;;;;5004720;28;20217;-71
2021/12/22 10:44:14;;;;;;;11.70;9.37;;;2.40;99.90;;;;;;5020968;28;20679;-71
2021/12/22 10:46:41;;;;;;;10.60;9.50;;;2.60;99.90;;;;;;5024290;28;20290;-71
2021/12/22 10:49:20;;;;;;;10.53;8.83;;;2.60;99.90;;;;;;5024718;28;20207;-71
2021/12/22 10:51:57;;;;;;;12.17;8.80;;;2.80;99.90;;;;;;5025126;28;20582;-71
2021/12/22 10:54:32;;;;;;;13.80;10.60;;;2.90;99.90;;;;;;5024514;28;20240;-71
2021/12/22 10:57:01;;;;;;;10.20;9.10;;;2.80;99.90;;;;;;5024562;28;20220;-71
2021/12/22 10:59:29;;;;;;;11.00;8.93;;;3.00;99.90;;;;;;5025946;28;20216;-71
2021/12/22 11:01:59;;;;;;;9.67;8.67;;;3.00;99.90;;;;;;5025270;28;20291;-71
2021/12/22 11:04:31;;;;;;;10.40;8.80;;;3.20;99.90;;;;;;5024683;28;20203;-71
2021/12/22 11:07:07;;;;;;;10.50;9.33;;;3.40;99.90;;;;;;5024242;28;20641;-71
2021/12/22 11:09:36;;;;;;;10.33;8.23;;;3.50;99.90;;;;;;5024542;28;20634;-71
2021/12/22 11:12:05;;;;;;;10.07;8.50;;;3.50;99.90;;;;;;5024432;28;20236;-71
2021/12/22 11:14:36;;;;;;;10.27;9.03;;;3.50;99.90;;;;;;5024430;28;20208;-71
2021/12/22 11:17:06;;;;;;;11.27;8.83;;;3.60;99.90;;;;;;5024640;28;20201;-71
2021/12/22 11:19:35;;;;;;;9.73;8.73;;;3.60;99.90;;;;;;5024250;28;20656;-71
2021/12/22 11:22:09;;;;;;;8.77;7.83;;;3.50;99.90;;;;;;5024667;28;20326;-71
2021/12/22 11:24:39;;;;;;;10.40;8.30;;;3.30;99.90;;;;;;5024611;28;20197;-71
2021/12/22 11:27:07;;;;;;;9.57;8.33;;;3.40;99.90;;;;;;5024482;28;20243;-71
2021/12/22 11:29:37;;;;;;;10.27;8.43;;;3.30;99.90;;;;;;5024149;28;20302;-71
2021/12/22 11:32:06;;;;;;;9.73;8.50;;;3.20;99.90;;;;;;5024068;28;20625;-71
2021/12/22 11:34:35;;;;;;;10.73;8.27;;;3.10;99.90;;;;;;5024033;28;20671;-71
2021/12/22 11:37:04;;;;;;;9.00;8.10;;;3.10;99.90;;;;;;5024103;28;20741;-71
2021/12/22 11:39:31;;;;;;;11.07;8.20;;;3.00;99.90;;;;;;5024628;28;20205;-71
2021/12/22 11:41:58;;;;;;;9.67;8.60;;;2.90;99.90;;;;;;5023601;28;20645;-71
2021/12/22 11:44:25;;;;;;;9.43;8.43;;;3.00;99.90;;;;;;5023826;28;20209;-71
2021/12/22 11:46:58;;;;;;;9.67;8.60;;;3.00;99.90;;;;;;5023551;28;20229;-71
2021/12/22 11:49:25;;;;;;;11.80;8.80;;;3.10;99.90;;;;;;5024067;28;20694;-71
2021/12/22 11:51:52;;;;;;;11.50;8.97;;;3.10;99.90;;;;;;5027742;28;20209;-71
2021/12/22 11:54:26;;;;;;;10.33;8.93;;;3.20;99.90;;;;;;5027193;28;20239;-71
2021/12/22 11:56:54;;;;;;;12.03;9.10;;;3.30;99.90;;;;;;5027706;28;20282;-71
2021/12/22 11:59:36;;;;;;;10.07;8.73;;;3.40;99.90;;;;;;5027811;28;20208;-71
2021/12/22 12:02:27;;;;;;;11.03;9.00;;;3.50;99.90;;;;;;5027868;28;20315;-71
2021/12/22 12:05:11;;;;;;;11.60;9.40;;;3.50;99.90;;;;;;5027726;28;20618;-71
2021/12/22 12:07:44;;;;;;;10.47;9.37;;;3.30;99.90;;;;;;5027253;28;20270;-71
2021/12/22 12:10:38;;;;;;;13.20;9.60;;;3.40;99.90;;;;;;5027465;28;20220;-71
2021/12/22 12:13:10;;;;;;;10.57;9.53;;;3.20;99.90;;;;;;5027251;28;20263;-71
2021/12/22 12:22:04;;;;;;;13.97;10.70;;;3.40;99.90;;;;;;5026942;28;20235;-71
2021/12/22 12:24:37;;;;;;;12.87;10.60;;;3.60;99.90;;;;;;5027541;28;20193;-71
2021/12/22 12:27:38;;;;;;;13.60;10.00;;;3.60;99.90;;;;;;5027152;28;20213;-70
2021/12/22 12:30:08;;;;;;;13.80;11.10;;;3.50;99.90;;;;;;5027007;28;20716;-74
2021/12/22 12:33:06;;;;;;;14.20;10.53;;;3.60;99.90;;;;;;5025185;28;20630;-71
2021/12/22 12:35:35;;;;;;;12.20;10.57;;;3.60;99.90;;;;;;5030651;28;20248;-71
2021/12/22 12:38:07;;;;;;;13.67;10.47;;;3.60;99.90;;;;;;5030456;28;20295;-71
2021/12/22 12:41:13;;;;;;;13.93;11.60;;;3.60;99.90;;;;;;5030535;28;20193;-71
2021/12/22 12:44:09;;;;;;;13.53;10.90;;;3.70;99.90;;;;;;5029994;28;20660;-71
2021/12/22 12:46:47;;;;;;;15.07;10.57;;;3.80;99.90;;;;;;5027083;28;20232;-71
2021/12/22 12:49:36;;;;;;;13.73;11.20;;;3.90;99.90;;;;;;5014507;28;20221;-71
2021/12/22 12:52:07;;;;;;;11.70;9.93;;;3.90;99.90;;;;;;5012932;28;20216;-71
2021/12/22 12:54:40;;;;;;;13.00;10.20;;;3.90;99.90;;;;;;5028431;28;20295;-71
2021/12/22 12:57:27;;;;;;;13.37;10.37;;;4.00;99.90;;;;;;5029985;28;20247;-71
2021/12/22 13:00:02;;;;;;;11.53;10.33;;;4.00;99.90;;;;;;5029424;28;20213;-71
2021/12/22 13:02:31;;;;;;;12.63;10.13;;;4.10;99.90;;;;;;5029818;28;20736;-72
2021/12/22 13:05:00;;;;;;;13.47;9.80;;;4.10;99.90;;;;;;5029745;28;20205;-72
2021/12/22 13:07:27;;;;;;;13.07;9.70;;;4.10;99.90;;;;;;5027504;28;20225;-71
2021/12/22 13:10:02;;;;;;;13.73;10.33;;;4.10;99.90;;;;;;5026740;28;20679;-71
2021/12/22 13:12:46;;;;;;;11.50;8.90;;;4.00;99.90;;;;;;5023513;28;20313;-71
2021/12/22 13:18:14;;;;;;;10.57;8.97;;;3.90;99.90;;;;;;4984577;28;20292;-70
2021/12/22 13:20:42;;;;;;;11.67;8.47;;;3.80;99.90;;;;;;5016907;28;20201;-71
2021/12/22 13:23:11;;;;;;;10.37;8.47;;;3.80;99.90;;;;;;5017780;28;20241;-71